메인 페이지
METAR-TAF:

METAR-TAF

공항 :

Panama Pacifico, 파나마

위도: 08-55N, 경도: 079-36W, 고도: 16m

현재 날씨관측

예보는 54분 전, 16:00시(UTC)에 발표되었습니다.
12kt
온도 33°C
습도 53%
기압 1014 hPa
시정: 9000m
고도 2000ft 상공 구름 조금

METAR: MPPA 021600Z 01012KT 9000 FEW020 33/22 Q1014

시각: 11:54 (16:54 UTC)

예보

예보는 5 시간 54분 전, 11:00시(UTC)에 발표되었습니다.
예보 대상 시간: 02일 12시부터 03일 18시까지 (UTC)
6kt
시정 10km 이상
고도 2000ft 상공 구름 조금
일시적
02일 18시부터 02일 22시까지 (UTC)
16kt

TAF: MPPA 021100Z 0212/0318 35006KT 9999 FEW020 TEMPO 0218/0222 35016KT

4,000개 이상의 공항 관측 자료 및 예보 (METAR 및 TAF 보고).

지도상에서 검색 가능한 기상관측소가 노란 점과 빨간 점으로 표시되어 있습니다.

기상관측소 명을 보려면 표시 위로 마우스를 이동하세요.

날씨 관측과 예보를 보려면 클릭하세요.

지도 변경 : 확대하려면 엑스 표시가 있는 녹색 버튼, 축소하려면 빼기 표시가 있는 녹색 버튼, 다음 페이지의 지도를 보려면 녹색 화살표를 클릭하세요.


METAR-TAF: